createdAt,value
2019-05-18T00:02:02.119Z,19.03
2019-05-18T00:04:30.973Z,20.97
2019-05-18T00:07:00.107Z,19.87
2019-05-18T00:09:28.898Z,19.03
2019-05-18T00:11:58.067Z,20.07
2019-05-18T00:14:27.409Z,20.30
2019-05-18T00:16:56.301Z,19.77
2019-05-18T00:19:25.085Z,20.00
2019-05-18T00:21:54.990Z,20.10
2019-05-18T00:24:24.450Z,20.33
2019-05-18T00:26:54.151Z,19.73
2019-05-18T00:29:23.204Z,19.53
2019-05-18T00:31:52.022Z,19.47
2019-05-18T00:34:21.389Z,20.20
2019-05-18T00:36:50.191Z,21.00
2019-05-18T00:39:18.989Z,22.50
2019-05-18T00:41:48.101Z,20.93
2019-05-18T00:44:17.462Z,21.23
2019-05-18T00:46:46.762Z,21.80
2019-05-18T00:49:16.382Z,20.27
2019-05-18T00:51:45.864Z,18.97
2019-05-18T00:54:15.496Z,21.43
2019-05-18T00:56:44.576Z,21.60
2019-05-18T00:59:16.004Z,20.53
2019-05-18T01:01:44.325Z,21.33
2019-05-18T01:04:13.200Z,21.33
2019-05-18T01:06:41.987Z,20.73
2019-05-18T01:09:10.846Z,21.23
2019-05-18T01:11:40.195Z,20.80
2019-05-18T01:14:09.170Z,19.20
2019-05-18T01:16:38.272Z,20.80
2019-05-18T01:19:07.421Z,20.43
2019-05-18T01:21:36.568Z,20.03
2019-05-18T01:24:06.317Z,19.57
2019-05-18T01:26:35.456Z,19.33
2019-05-18T01:29:05.535Z,18.97
2019-05-18T01:31:35.907Z,18.60
2019-05-18T01:34:05.154Z,19.70
2019-05-18T01:36:34.309Z,20.33
2019-05-18T01:39:04.872Z,20.07
2019-05-18T01:41:34.125Z,20.67
2019-05-18T01:44:02.997Z,20.33
2019-05-18T01:46:32.042Z,19.90
2019-05-18T01:49:00.817Z,20.77
2019-05-18T01:51:29.647Z,22.30
2019-05-18T01:53:58.718Z,21.00
2019-05-18T01:56:27.816Z,20.80
2019-05-18T01:58:56.898Z,19.53
2019-05-18T02:01:25.683Z,19.83
2019-05-18T02:03:54.815Z,20.33
2019-05-18T02:06:23.623Z,20.77
2019-05-18T02:08:52.768Z,19.47
2019-05-18T02:11:21.656Z,19.97
2019-05-18T02:13:51.069Z,20.10
2019-05-18T02:16:20.118Z,20.93
2019-05-18T02:18:49.251Z,20.07
2019-05-18T02:21:18.306Z,21.37
2019-05-18T02:23:47.376Z,19.23
2019-05-18T02:26:16.189Z,20.07
2019-05-18T02:28:45.786Z,20.07
2019-05-18T02:31:15.066Z,19.07
2019-05-18T02:33:44.115Z,19.73
2019-05-18T02:36:13.263Z,19.70
2019-05-18T02:38:42.190Z,18.80
2019-05-18T02:41:11.350Z,18.60
2019-05-18T02:43:40.146Z,19.63
2019-05-18T02:46:09.001Z,19.70
2019-05-18T02:48:48.762Z,20.97
2019-05-18T02:51:11.337Z,20.60
2019-05-18T02:53:39.731Z,19.07
2019-05-18T02:56:08.810Z,18.77
2019-05-18T02:58:37.652Z,18.83
2019-05-18T03:01:06.586Z,19.60
2019-05-18T03:03:36.009Z,20.30
2019-05-18T03:06:04.960Z,20.00
2019-05-18T03:08:34.375Z,20.50
2019-05-18T03:11:03.595Z,20.93
2019-05-18T03:13:32.507Z,20.10
2019-05-18T03:16:01.699Z,20.00
2019-05-18T03:18:30.943Z,19.67
2019-05-18T03:21:00.011Z,19.00
2019-05-18T03:23:29.189Z,19.57
2019-05-18T03:25:58.591Z,19.73
2019-05-18T03:28:27.699Z,20.37
2019-05-18T03:30:57.078Z,19.70
2019-05-18T03:33:29.394Z,20.57
2019-05-18T03:35:56.568Z,19.10
2019-05-18T03:38:25.352Z,21.03
2019-05-18T03:40:54.470Z,19.87
2019-05-18T03:43:23.236Z,20.47
2019-05-18T03:45:52.036Z,19.33
2019-05-18T03:48:20.897Z,20.73
2019-05-18T03:50:50.324Z,21.67
2019-05-18T03:53:19.360Z,20.67
2019-05-18T03:55:48.685Z,20.90
2019-05-18T03:58:17.574Z,19.53
2019-05-18T04:00:46.434Z,20.90
2019-05-18T04:03:15.283Z,20.43
2019-05-18T04:05:44.629Z,21.73
2019-05-18T04:08:13.450Z,22.50
2019-05-18T04:10:42.829Z,21.30
2019-05-18T04:13:11.669Z,22.13
2019-05-18T04:15:41.092Z,20.63
2019-05-18T04:18:10.232Z,21.20
2019-05-18T04:20:39.136Z,21.13
2019-05-18T04:23:08.207Z,20.83
2019-05-18T04:25:37.779Z,21.53
2019-05-18T04:28:06.872Z,21.00
2019-05-18T04:30:35.685Z,21.03
2019-05-18T04:33:05.030Z,21.70
2019-05-18T04:35:33.904Z,23.00
2019-05-18T04:38:02.953Z,20.17
2019-05-18T04:40:32.003Z,21.17
2019-05-18T04:43:01.094Z,21.73
2019-05-18T04:45:30.208Z,20.80
2019-05-18T04:47:59.067Z,22.37
2019-05-18T04:50:28.132Z,21.27
2019-05-18T04:52:57.854Z,22.60
2019-05-18T04:55:27.725Z,22.63
2019-05-18T04:57:56.765Z,21.97
2019-05-18T05:00:25.661Z,21.70
2019-05-18T05:02:55.238Z,20.87
2019-05-18T05:05:24.589Z,22.23
2019-05-18T05:07:53.916Z,21.10
2019-05-18T05:10:23.293Z,20.47
2019-05-18T05:12:52.709Z,20.37
2019-05-18T05:15:21.802Z,21.50
2019-05-18T05:17:50.754Z,22.23
2019-05-18T05:20:20.283Z,21.33
2019-05-18T05:22:49.507Z,21.53
2019-05-18T05:25:18.562Z,21.10
2019-05-18T05:27:47.917Z,20.93
2019-05-18T05:30:17.211Z,21.37
2019-05-18T05:32:46.279Z,20.97
2019-05-18T05:35:15.560Z,20.57
2019-05-18T05:37:44.921Z,21.37
2019-05-18T05:40:13.845Z,21.07
2019-05-18T05:42:42.872Z,20.20
2019-05-18T05:45:12.517Z,20.57
2019-05-18T05:47:41.571Z,19.60
2019-05-18T05:50:11.338Z,19.77
2019-05-18T05:52:40.226Z,20.57
2019-05-18T05:55:09.961Z,19.47
2019-05-18T05:57:39.127Z,19.87
2019-05-18T06:00:09.364Z,20.23
2019-05-18T06:02:38.388Z,20.07
2019-05-18T06:05:09.358Z,19.17
2019-05-18T06:07:38.290Z,18.67
2019-05-18T06:10:07.381Z,19.73
2019-05-18T06:12:37.332Z,18.57
2019-05-18T06:15:06.979Z,17.70
2019-05-18T06:17:36.243Z,18.13
2019-05-18T06:20:05.630Z,18.30
2019-05-18T06:22:34.532Z,19.10
2019-05-18T06:25:05.309Z,18.13
2019-05-18T06:27:34.481Z,19.40
2019-05-18T06:30:03.941Z,19.00
2019-05-18T06:32:32.845Z,18.93
2019-05-18T06:35:01.644Z,17.97
2019-05-18T06:37:30.836Z,18.50
2019-05-18T06:39:59.983Z,18.60
2019-05-18T06:42:29.727Z,18.73
2019-05-18T06:44:58.726Z,18.70
2019-05-18T06:47:28.530Z,19.00
2019-05-18T06:49:57.924Z,18.87
2019-05-18T06:52:27.523Z,16.97
2019-05-18T06:54:57.348Z,18.60
2019-05-18T06:57:27.260Z,17.53
2019-05-18T06:59:56.455Z,18.23
2019-05-18T07:02:26.419Z,18.80
2019-05-18T07:04:56.762Z,17.00
2019-05-18T07:07:25.886Z,17.90
2019-05-18T07:09:54.724Z,16.67
2019-05-18T07:12:24.434Z,16.73
2019-05-18T07:14:53.405Z,17.57
2019-05-18T07:17:22.507Z,17.73
2019-05-18T07:19:51.490Z,18.07
2019-05-18T07:22:20.473Z,16.67
2019-05-18T07:24:49.810Z,16.90
2019-05-18T07:27:19.017Z,17.53
2019-05-18T07:29:47.903Z,16.73
2019-05-18T07:32:16.774Z,16.40
2019-05-18T07:34:51.871Z,17.83
2019-05-18T07:37:21.274Z,16.73
2019-05-18T07:39:50.535Z,16.73
2019-05-18T07:42:19.349Z,16.20
2019-05-18T07:44:48.198Z,14.77
2019-05-18T07:47:17.586Z,16.37
2019-05-18T07:49:46.767Z,16.17
2019-05-18T07:52:17.283Z,16.63
2019-05-18T07:54:46.635Z,15.17
2019-05-18T07:57:16.346Z,16.33
2019-05-18T07:59:45.754Z,15.53
2019-05-18T08:02:15.030Z,15.20
2019-05-18T08:04:43.886Z,15.77
2019-05-18T08:07:12.966Z,15.50
2019-05-18T08:09:41.772Z,14.83
2019-05-18T08:12:11.373Z,14.73
2019-05-18T08:14:40.618Z,13.63
2019-05-18T08:17:10.001Z,15.33
2019-05-18T08:19:38.901Z,14.23
2019-05-18T08:22:08.034Z,12.50
2019-05-18T08:24:36.935Z,11.73
2019-05-18T08:27:05.840Z,12.87
2019-05-18T08:29:34.617Z,13.70
2019-05-18T08:32:03.678Z,12.50
2019-05-18T08:34:33.290Z,14.37
2019-05-18T08:37:02.463Z,13.23
2019-05-18T08:39:31.768Z,13.40
2019-05-18T08:42:00.825Z,13.10
2019-05-18T08:44:29.676Z,12.80
2019-05-18T08:46:58.463Z,14.07
2019-05-18T08:49:27.527Z,13.33
2019-05-18T08:52:07.890Z,12.87
2019-05-18T08:54:28.712Z,11.83
2019-05-18T08:56:58.306Z,12.47
2019-05-18T08:59:27.425Z,11.77
2019-05-18T09:01:56.652Z,12.40
2019-05-18T09:04:25.818Z,11.90
2019-05-18T09:06:55.408Z,11.60
2019-05-18T09:09:24.208Z,11.70
2019-05-18T09:11:53.646Z,12.67
2019-05-18T09:14:22.737Z,12.47
2019-05-18T09:16:51.569Z,12.50
2019-05-18T09:19:21.067Z,11.27
2019-05-18T09:21:50.016Z,10.90
2019-05-18T09:24:19.213Z,12.17
2019-05-18T09:26:48.726Z,11.47
2019-05-18T09:29:17.778Z,11.23
2019-05-18T09:31:46.696Z,10.73
2019-05-18T09:34:17.401Z,11.57
2019-05-18T09:36:46.286Z,10.07
2019-05-18T09:39:15.619Z,9.63
2019-05-18T09:41:44.695Z,10.60
2019-05-18T09:44:13.830Z,9.90
2019-05-18T09:46:42.940Z,11.97
2019-05-18T09:49:11.738Z,11.23
2019-05-18T09:51:41.259Z,10.90
2019-05-18T09:54:10.406Z,11.20
2019-05-18T09:56:39.853Z,11.00
2019-05-18T09:59:09.057Z,10.50
2019-05-18T10:01:37.873Z,8.10
2019-05-18T10:04:07.970Z,8.17
2019-05-18T10:06:37.371Z,9.43
2019-05-18T10:09:08.310Z,8.60
2019-05-18T10:11:38.644Z,21.27
2019-05-18T10:14:08.083Z,12.30
2019-05-18T10:16:37.248Z,21.97
2019-05-18T10:19:06.186Z,10.10
2019-05-18T10:21:35.100Z,11.33
2019-05-18T10:24:04.023Z,9.30
2019-05-18T10:26:33.108Z,9.00
2019-05-18T10:29:02.400Z,10.30
2019-05-18T10:31:31.530Z,9.80
2019-05-18T10:34:00.712Z,8.43
2019-05-18T10:36:29.620Z,8.77
2019-05-18T10:38:58.843Z,9.17
2019-05-18T10:41:28.053Z,9.73
2019-05-18T10:43:57.767Z,8.80
2019-05-18T10:46:27.179Z,8.77
2019-05-18T10:48:56.289Z,9.00
2019-05-18T10:51:26.041Z,9.03
2019-05-18T10:53:55.223Z,9.00
2019-05-18T10:56:24.397Z,9.07
2019-05-18T10:58:53.588Z,7.83
2019-05-18T11:01:22.924Z,8.77
2019-05-18T11:03:52.567Z,8.33
2019-05-18T11:06:21.773Z,8.33
2019-05-18T11:08:51.002Z,8.80
2019-05-18T11:11:20.442Z,8.27
2019-05-18T11:13:49.543Z,9.33
2019-05-18T11:16:19.054Z,8.37
2019-05-18T11:18:48.280Z,8.00
2019-05-18T11:21:17.112Z,7.40
2019-05-18T11:23:48.090Z,8.80
2019-05-18T11:26:16.707Z,7.53
2019-05-18T11:28:46.106Z,7.37
2019-05-18T11:31:15.265Z,8.10
2019-05-18T11:33:44.116Z,8.33
2019-05-18T11:36:13.595Z,7.50
2019-05-18T11:38:42.514Z,9.20
2019-05-18T11:41:11.854Z,8.07
2019-05-18T11:43:40.762Z,8.60
2019-05-18T11:46:10.436Z,8.50
2019-05-18T11:48:39.375Z,8.90
2019-05-18T11:51:09.253Z,7.80
2019-05-18T11:53:38.537Z,8.53
2019-05-18T11:56:07.697Z,8.60
2019-05-18T11:58:36.794Z,8.47
2019-05-18T12:01:05.784Z,8.33
2019-05-18T12:03:34.665Z,8.00
2019-05-18T12:06:03.887Z,7.40
2019-05-18T12:08:33.350Z,8.27
2019-05-18T12:11:04.399Z,8.00
2019-05-18T12:13:33.503Z,7.07
2019-05-18T12:16:02.427Z,6.37
2019-05-18T12:18:31.357Z,7.57
2019-05-18T12:21:00.559Z,7.23
2019-05-18T12:23:29.692Z,7.50
2019-05-18T12:25:58.964Z,7.43
2019-05-18T12:28:27.776Z,7.43
2019-05-18T12:30:56.847Z,7.13
2019-05-18T12:33:26.021Z,6.83
2019-05-18T12:35:54.817Z,7.13
2019-05-18T12:38:23.930Z,7.10
2019-05-18T12:40:53.504Z,6.40
2019-05-18T12:43:22.652Z,6.70
2019-05-18T12:45:51.683Z,6.07
2019-05-18T12:48:20.929Z,5.83
2019-05-18T12:50:50.840Z,6.40
2019-05-18T12:53:19.661Z,6.07
2019-05-18T12:55:48.882Z,6.57
2019-05-18T12:58:18.001Z,6.30
2019-05-18T13:00:46.900Z,5.90
2019-05-18T13:03:16.570Z,5.67
2019-05-18T13:05:45.654Z,5.60
2019-05-18T13:08:14.454Z,6.80
2019-05-18T13:10:44.381Z,6.60
2019-05-18T13:13:13.479Z,7.27
2019-05-18T13:15:42.314Z,6.67
2019-05-18T13:18:11.470Z,5.37
2019-05-18T13:20:40.747Z,5.30
2019-05-18T13:23:09.703Z,5.30
2019-05-18T13:25:38.779Z,5.37
2019-05-18T13:28:10.252Z,5.77
2019-05-18T13:30:39.683Z,5.73
2019-05-18T13:33:08.925Z,5.17
2019-05-18T13:35:38.155Z,5.40
2019-05-18T13:38:07.063Z,5.87
2019-05-18T13:40:36.453Z,5.23
2019-05-18T13:43:05.748Z,5.20
2019-05-18T13:45:34.662Z,5.40
2019-05-18T13:48:03.506Z,5.47
2019-05-18T13:50:32.545Z,4.70
2019-05-18T13:53:01.701Z,5.00
2019-05-18T13:55:30.944Z,5.03
2019-05-18T13:57:59.802Z,4.60
2019-05-18T14:00:29.039Z,4.60
2019-05-18T14:02:58.488Z,4.80
2019-05-18T14:05:27.461Z,4.43
2019-05-18T14:07:57.232Z,4.00
2019-05-18T14:10:26.127Z,4.10
2019-05-18T14:12:55.123Z,4.00
2019-05-18T14:15:25.150Z,3.80
2019-05-18T14:17:54.141Z,4.00
2019-05-18T14:20:26.176Z,3.80
2019-05-18T14:22:54.566Z,4.67
2019-05-18T14:25:23.860Z,3.80
2019-05-18T14:27:52.807Z,3.77
2019-05-18T14:30:22.382Z,3.80
2019-05-18T14:32:51.761Z,3.40
2019-05-18T14:35:21.434Z,3.40
2019-05-18T14:37:50.709Z,3.77
2019-05-18T14:40:20.215Z,3.07
2019-05-18T14:42:49.534Z,3.13
2019-05-18T14:45:18.589Z,2.97
2019-05-18T14:47:47.436Z,3.20
2019-05-18T14:50:17.298Z,3.30
2019-05-18T14:52:46.789Z,3.20
2019-05-18T14:55:17.609Z,2.93
2019-05-18T14:57:47.756Z,3.47
2019-05-18T15:00:18.089Z,3.07
2019-05-18T15:02:47.804Z,3.30
2019-05-18T15:05:16.976Z,3.27
2019-05-18T15:07:46.192Z,3.30
2019-05-18T15:10:16.016Z,3.17
2019-05-18T15:12:45.100Z,2.97
2019-05-18T15:15:15.420Z,3.00
2019-05-18T15:17:44.509Z,3.63
2019-05-18T15:20:13.998Z,3.23
2019-05-18T15:22:42.827Z,3.33
2019-05-18T15:25:12.295Z,3.70
2019-05-18T15:27:41.568Z,3.90
2019-05-18T15:30:11.953Z,3.40
2019-05-18T15:32:41.369Z,3.60
2019-05-18T15:35:11.002Z,3.30
2019-05-18T15:37:42.932Z,3.50
2019-05-18T15:40:13.306Z,3.90
2019-05-18T15:42:42.644Z,3.60
2019-05-18T15:45:12.368Z,3.70
2019-05-18T15:47:41.344Z,3.53
2019-05-18T15:50:11.437Z,3.40
2019-05-18T15:52:40.804Z,4.17
2019-05-18T15:55:10.159Z,4.60
2019-05-18T15:57:39.305Z,6.40
2019-05-18T16:00:10.464Z,5.50
2019-05-18T16:02:39.708Z,3.73
2019-05-18T16:05:09.095Z,3.73
2019-05-18T16:07:38.227Z,4.10
2019-05-18T16:10:08.419Z,3.57
2019-05-18T16:12:37.768Z,3.60
2019-05-18T16:15:07.904Z,4.17
2019-05-18T16:17:39.610Z,3.77
2019-05-18T16:20:07.875Z,6.20
2019-05-18T16:22:36.867Z,3.90
2019-05-18T16:25:06.226Z,3.53
2019-05-18T16:27:35.241Z,3.67
2019-05-18T16:30:04.579Z,3.63
2019-05-18T16:32:33.725Z,4.73
2019-05-18T16:35:03.038Z,5.57
2019-05-18T16:37:32.405Z,5.50
2019-05-18T16:40:01.705Z,4.33
2019-05-18T16:42:30.858Z,4.70
2019-05-18T16:45:00.246Z,4.50
2019-05-18T16:47:29.416Z,5.90
2019-05-18T16:49:58.562Z,4.83
2019-05-18T16:52:27.639Z,4.23
2019-05-18T16:54:56.817Z,4.10
2019-05-18T16:57:25.801Z,3.90
2019-05-18T16:59:55.071Z,3.60
2019-05-18T17:02:31.624Z,3.67
2019-05-18T17:04:54.995Z,3.73
2019-05-18T17:07:24.663Z,3.97
2019-05-18T17:09:54.247Z,4.60
2019-05-18T17:12:23.175Z,4.33
2019-05-18T17:14:52.160Z,4.03
2019-05-18T17:17:21.335Z,4.50
2019-05-18T17:19:50.390Z,5.57
2019-05-18T17:22:19.556Z,5.97
2019-05-18T17:24:48.617Z,6.20
2019-05-18T17:27:18.161Z,6.57
2019-05-18T17:29:47.513Z,5.97
2019-05-18T17:32:17.278Z,5.77
2019-05-18T17:34:46.438Z,5.33
2019-05-18T17:37:15.893Z,5.93
2019-05-18T17:39:45.279Z,5.50
2019-05-18T17:42:14.388Z,5.87
2019-05-18T17:44:43.451Z,5.87
2019-05-18T17:47:12.395Z,6.07
2019-05-18T17:49:41.655Z,5.67
2019-05-18T17:52:11.099Z,5.17
2019-05-18T17:54:40.286Z,5.17
2019-05-18T17:57:09.638Z,6.47
2019-05-18T17:59:38.529Z,8.20
2019-05-18T18:02:07.778Z,9.47
2019-05-18T18:04:37.183Z,9.93
2019-05-18T18:07:06.465Z,10.30
2019-05-18T18:09:35.316Z,11.17
2019-05-18T18:12:05.191Z,11.40
2019-05-18T18:14:33.982Z,12.07
2019-05-18T18:17:03.222Z,12.57
2019-05-18T18:19:32.089Z,13.23
2019-05-18T18:22:01.252Z,11.60
2019-05-18T18:24:30.755Z,12.13
2019-05-18T18:26:59.744Z,11.90
2019-05-18T18:29:29.150Z,12.40
2019-05-18T18:31:58.262Z,12.33
2019-05-18T18:34:27.626Z,11.70
2019-05-18T18:36:56.447Z,11.93
2019-05-18T18:39:25.373Z,11.27
2019-05-18T18:41:54.895Z,11.67
2019-05-18T18:44:23.765Z,11.60
2019-05-18T18:46:53.197Z,12.63
2019-05-18T18:49:22.018Z,12.47
2019-05-18T18:51:50.976Z,12.50
2019-05-18T18:54:20.357Z,12.27
2019-05-18T18:56:49.197Z,12.90
2019-05-18T18:59:18.586Z,13.40
2019-05-18T19:01:47.388Z,13.97
2019-05-18T19:04:16.739Z,13.27
2019-05-18T19:06:45.507Z,14.20
2019-05-18T19:09:15.099Z,13.63
2019-05-18T19:11:44.068Z,14.10
2019-05-18T19:14:13.388Z,13.53
2019-05-18T19:16:42.483Z,14.00
2019-05-18T19:19:11.560Z,14.13
2019-05-18T19:21:40.498Z,14.03
2019-05-18T19:24:09.565Z,14.97
2019-05-18T19:26:38.745Z,15.17
2019-05-18T19:29:07.915Z,15.07
2019-05-18T19:31:36.742Z,15.83
2019-05-18T19:34:05.827Z,15.13
2019-05-18T19:36:35.157Z,16.00
2019-05-18T19:39:06.056Z,15.17
2019-05-18T19:41:34.864Z,17.13
2019-05-18T19:44:03.868Z,15.83
2019-05-18T19:46:33.073Z,14.97
2019-05-18T19:49:02.274Z,16.73
2019-05-18T19:51:31.154Z,15.63
2019-05-18T19:54:00.195Z,15.97
2019-05-18T19:56:29.057Z,16.33
2019-05-18T19:58:57.887Z,16.47
2019-05-18T20:01:27.019Z,16.83
2019-05-18T20:03:55.851Z,16.73
2019-05-18T20:06:25.480Z,16.67
2019-05-18T20:08:54.904Z,16.87
2019-05-18T20:11:23.870Z,16.83
2019-05-18T20:13:53.407Z,16.63
2019-05-18T20:16:23.036Z,16.63
2019-05-18T20:18:52.663Z,15.83
2019-05-18T20:21:21.641Z,16.37
2019-05-18T20:23:52.300Z,16.77
2019-05-18T20:26:21.146Z,16.80
2019-05-18T20:28:50.293Z,16.93
2019-05-18T20:31:19.885Z,16.47
2019-05-18T20:33:48.891Z,16.93
2019-05-18T20:36:18.079Z,17.20
2019-05-18T20:38:46.938Z,16.73
2019-05-18T20:41:16.107Z,16.60
2019-05-18T20:43:45.455Z,17.83
2019-05-18T20:46:14.818Z,17.67
2019-05-18T20:48:43.815Z,18.43
2019-05-18T20:51:12.968Z,18.00
2019-05-18T20:53:42.040Z,17.90
2019-05-18T20:56:11.148Z,17.07
2019-05-18T20:58:40.889Z,17.90
2019-05-18T21:01:10.283Z,17.80
2019-05-18T21:03:39.458Z,17.60
2019-05-18T21:06:08.745Z,17.40
2019-05-18T21:08:38.024Z,18.10
2019-05-18T21:11:07.545Z,18.57
2019-05-18T21:13:36.986Z,18.07
2019-05-18T21:16:05.975Z,18.60
2019-05-18T21:18:35.058Z,19.93
2019-05-18T21:21:04.446Z,18.57
2019-05-18T21:23:33.655Z,19.03
2019-05-18T21:26:02.476Z,20.33
2019-05-18T21:28:31.307Z,17.90
2019-05-18T21:31:00.948Z,19.47
2019-05-18T21:33:30.291Z,19.33
2019-05-18T21:36:00.105Z,19.07
2019-05-18T21:38:29.771Z,19.50
2019-05-18T21:40:58.856Z,20.17
2019-05-18T21:43:27.671Z,20.30
2019-05-18T21:45:57.061Z,19.93
2019-05-18T21:48:26.344Z,20.13
2019-05-18T21:50:55.971Z,21.07
2019-05-18T21:53:24.796Z,19.60
2019-05-18T21:55:53.926Z,19.67
2019-05-18T21:58:23.065Z,19.97
2019-05-18T22:00:52.722Z,19.60
2019-05-18T22:03:21.831Z,20.20
2019-05-18T22:05:50.967Z,19.73
2019-05-18T22:08:19.893Z,20.13
2019-05-18T22:10:49.222Z,19.13
2019-05-18T22:13:18.401Z,18.93
2019-05-18T22:15:47.466Z,19.13
2019-05-18T22:18:24.085Z,21.00
2019-05-18T22:20:46.799Z,17.53
2019-05-18T22:23:16.569Z,20.20
2019-05-18T22:25:45.894Z,18.50
2019-05-18T22:28:15.431Z,20.00
2019-05-18T22:30:45.127Z,19.97
2019-05-18T22:33:14.296Z,19.87
2019-05-18T22:35:43.322Z,20.13
2019-05-18T22:38:12.420Z,19.53
2019-05-18T22:40:42.201Z,18.47
2019-05-18T22:43:11.118Z,19.13
2019-05-18T22:45:40.578Z,20.03
2019-05-18T22:48:09.950Z,19.23
2019-05-18T22:50:39.364Z,19.40
2019-05-18T22:53:08.298Z,19.93
2019-05-18T22:55:37.417Z,20.27
2019-05-18T22:58:06.996Z,21.00
2019-05-18T23:00:36.289Z,20.93
2019-05-18T23:03:05.524Z,21.20
2019-05-18T23:05:34.989Z,19.50
2019-05-18T23:08:03.965Z,20.23
2019-05-18T23:10:32.840Z,20.77
2019-05-18T23:13:01.974Z,22.10
2019-05-18T23:15:30.860Z,21.77
2019-05-18T23:18:00.140Z,21.77
2019-05-18T23:20:29.364Z,21.83
2019-05-18T23:22:59.143Z,21.00
2019-05-18T23:25:28.017Z,21.93
2019-05-18T23:27:56.912Z,20.93
2019-05-18T23:30:26.674Z,21.40
2019-05-18T23:32:55.576Z,22.50
2019-05-18T23:35:24.773Z,21.93
2019-05-18T23:37:53.951Z,21.40
2019-05-18T23:40:23.056Z,22.47
2019-05-18T23:42:52.049Z,23.50
2019-05-18T23:45:21.496Z,20.03
2019-05-18T23:47:51.015Z,21.47
2019-05-18T23:50:20.052Z,21.23
2019-05-18T23:52:49.808Z,21.23
2019-05-18T23:55:19.365Z,20.97
2019-05-18T23:57:49.163Z,21.00
